(°C)
24°
23°
22°
21°
20°
19°
19°
(°C)
24°
24°
23°
22°
21°
20°
20°
ESE
E
ENE
NNE
N
NNW
NNW
(km/h)
10-19
6-16
4-10
3-7
4-7
4-6
4-6
(mm)
0
0
0
0
0
0
0
(%)
0
0
0
0
0
0
0

Elevazione del sole

/ -21.8°
sun-icon
UV 5
07:48
20:09
Gibbosa crescente (161°)
19:48
05:55

METAR per Alcantarilla (LERI)

Ora Condizioni Temperatura/
Punto di rugiada
Vento Visibilità Tempo Nuvole Pressione Cambiamento Grezzo
VFR 25°C / 16°C 90º variable 060º to 140º 7kt >10km - Few Clouds 5200ft 1017 No Significant change LERI 191800Z 09007KT 060V140 9999 FEW052 25/16 Q1017 NOSIG
VFR 26°C / 16°C 90º variable 060º to 120º 8kt >10km - Few Clouds 4800ft 1017 No Significant change LERI 191730Z 09008KT 060V120 9999 FEW048 26/16 Q1017 NOSIG
VFR 27°C / 16°C 110º variable 070º to 160º 9kt >10km - Few Clouds 4500ft 1017 No Significant change LERI 191700Z 11009KT 070V160 9999 FEW045 27/16 Q1017 NOSIG
VFR 28°C / 17°C 110º variable 070º to 160º 9kt >10km - Few Clouds 4300ft 1016 No Significant change LERI 191630Z 11009KT 070V160 9999 FEW043 28/17 Q1016 NOSIG
VFR 28°C / 17°C 90º variable 050º to 150º 9kt >10km - Few Clouds 4400ft 1016 No Significant change LERI 191600Z 09009KT 050V150 9999 FEW044 28/17 Q1016 NOSIG
VFR 28°C / 16°C 60º variable 030º to 100º 11kt >10km - Few Clouds 4600ft 1016 No Significant change LERI 191530Z 06011KT 030V100 9999 FEW046 28/16 Q1016 NOSIG
VFR 28°C / 16°C 70º variable 020º to 100º 10kt >10km - Few Clouds 4600ft 1016 No Significant change LERI 191500Z 07010KT 020V100 9999 FEW046 28/16 Q1016 NOSIG
VFR 30°C / 17°C 80º variable 030º to 120º 9kt >10km - Few Clouds 4600ft 1016 No Significant change LERI 191430Z 08009KT 030V120 9999 FEW046 30/17 Q1016 NOSIG
VFR 30°C / 16°C 80º variable 030º to 140º 8kt >10km - Few Clouds 4800ft 1017 No Significant change LERI 191400Z 08008KT 030V140 9999 FEW048 30/16 Q1017 NOSIG
VFR 30°C / 16°C 70º variable 020º to 140º 7kt >10km - Few Clouds 4800ft 1017 No Significant change LERI 191330Z 07007KT 020V140 9999 FEW048 30/16 Q1017 NOSIG
VFR 29°C / 15°C 70º variable 030º to 160º 8kt >10km - Few Clouds 4500ft 1017 No Significant change LERI 191300Z 07008KT 030V160 9999 FEW045 29/15 Q1017 NOSIG
VFR 29°C / 16°C 80º variable 010º to 140º 6kt >10km - Scattered Clouds 4500ft 1018 No Significant change LERI 191230Z 08006KT 010V140 9999 SCT045 29/16 Q1018 NOSIG
VFR 29°C / 16°C 70º variable 030º to 130º 7kt >10km - Scattered Clouds 4300ft 1018 No Significant change LERI 191200Z 07007KT 030V130 9999 SCT043 29/16 Q1018 NOSIG
VFR 28°C / 16°C 70º variable 020º to 120º 8kt >10km - Scattered Clouds 4000ft 1018 No Significant change LERI 191130Z 07008KT 020V120 9999 SCT040 28/16 Q1018 NOSIG
VFR 28°C / 17°C 70º variable 020º to 110º 8kt >10km - Scattered Clouds 3900ft 1018 No Significant change LERI 191100Z 07008KT 020V110 9999 SCT039 28/17 Q1018 NOSIG
VFR 28°C / 17°C 60º variable 010º to 100º 8kt >10km - Broken Clouds 3600ft 1018 No Significant change LERI 191030Z 06008KT 010V100 9999 BKN036 28/17 Q1018 NOSIG
VFR 26°C / 17°C variable 5kt >10km - Scattered Clouds 3500ft 1019 No Significant change LERI 191000Z VRB05KT 9999 SCT035 BKN042 26/17 Q1019 NOSIG
VFR 27°C / 17°C 60º variable 020º to 120º 4kt >10km - Scattered Clouds 3500ft 1019 No Significant change LERI 190930Z 06004KT 020V120 9999 SCT035 27/17 Q1019 NOSIG
VFR 26°C / 17°C 30º variable 330º to 100º 4kt >10km - Few Clouds 3800ft 1018 No Significant change LERI 190900Z 03004KT 330V100 9999 FEW038 26/17 Q1018 NOSIG
VFR 26°C / 14°C 10º variable 330º to 060º 5kt >10km - Scattered Clouds 3300ft 1018 No Significant change LERI 190830Z 01005KT 330V060 9999 SCT033 26/14 Q1018 NOSIG
VFR 24°C / 11°C 340º variable 290º to 020º 3kt >10km - Scattered Clouds 2800ft 1018 No Significant change LERI 190800Z 34003KT 290V020 9999 SCT028 24/11 Q1018 NOSIG
VFR 23°C / 12°C variable 0kt >10km - Few Clouds 2300ft 1018 No Significant change LERI 190730Z 00000KT 9999 FEW023 SCT030 23/12 Q1018 NOSIG
VFR 21°C / 14°C 220º 2kt >10km - Few Clouds 2100ft 1018 No Significant change LERI 190700Z 22002KT 9999 FEW021 SCT030 21/14 Q1018 NOSIG
MVFR 19°C / 13°C 190º variable 170º to 240º 3kt >10km - Few Clouds 1900ft 1017 No Significant change LERI 190630Z 19003KT 170V240 9999 FEW019 BKN023 19/13 Q1017 NOSIG

VFR

25°C / 16°C

[Più]
Vento 90º variable 060º to 140º 7kt
Visibilità >10km
Tempo -
Nuvole Few Clouds 5200ft
Pressione 1017
Cambiamento No Significant change
Grezzo LERI 191800Z 09007KT 060V140 9999 FEW052 25/16 Q1017 NOSIG

VFR

26°C / 16°C

[Più]
Vento 90º variable 060º to 120º 8kt
Visibilità >10km
Tempo -
Nuvole Few Clouds 4800ft
Pressione 1017
Cambiamento No Significant change
Grezzo LERI 191730Z 09008KT 060V120 9999 FEW048 26/16 Q1017 NOSIG

VFR

27°C / 16°C

[Più]
Vento 110º variable 070º to 160º 9kt
Visibilità >10km
Tempo -
Nuvole Few Clouds 4500ft
Pressione 1017
Cambiamento No Significant change
Grezzo LERI 191700Z 11009KT 070V160 9999 FEW045 27/16 Q1017 NOSIG

VFR

28°C / 17°C

[Più]
Vento 110º variable 070º to 160º 9kt
Visibilità >10km
Tempo -
Nuvole Few Clouds 4300ft
Pressione 1016
Cambiamento No Significant change
Grezzo LERI 191630Z 11009KT 070V160 9999 FEW043 28/17 Q1016 NOSIG

VFR

28°C / 17°C

[Più]
Vento 90º variable 050º to 150º 9kt
Visibilità >10km
Tempo -
Nuvole Few Clouds 4400ft
Pressione 1016
Cambiamento No Significant change
Grezzo LERI 191600Z 09009KT 050V150 9999 FEW044 28/17 Q1016 NOSIG

VFR

28°C / 16°C

[Più]
Vento 60º variable 030º to 100º 11kt
Visibilità >10km
Tempo -
Nuvole Few Clouds 4600ft
Pressione 1016
Cambiamento No Significant change
Grezzo LERI 191530Z 06011KT 030V100 9999 FEW046 28/16 Q1016 NOSIG

VFR

28°C / 16°C

[Più]
Vento 70º variable 020º to 100º 10kt
Visibilità >10km
Tempo -
Nuvole Few Clouds 4600ft
Pressione 1016
Cambiamento No Significant change
Grezzo LERI 191500Z 07010KT 020V100 9999 FEW046 28/16 Q1016 NOSIG

VFR

30°C / 17°C

[Più]
Vento 80º variable 030º to 120º 9kt
Visibilità >10km
Tempo -
Nuvole Few Clouds 4600ft
Pressione 1016
Cambiamento No Significant change
Grezzo LERI 191430Z 08009KT 030V120 9999 FEW046 30/17 Q1016 NOSIG

VFR

30°C / 16°C

[Più]
Vento 80º variable 030º to 140º 8kt
Visibilità >10km
Tempo -
Nuvole Few Clouds 4800ft
Pressione 1017
Cambiamento No Significant change
Grezzo LERI 191400Z 08008KT 030V140 9999 FEW048 30/16 Q1017 NOSIG

VFR

30°C / 16°C

[Più]
Vento 70º variable 020º to 140º 7kt
Visibilità >10km
Tempo -
Nuvole Few Clouds 4800ft
Pressione 1017
Cambiamento No Significant change
Grezzo LERI 191330Z 07007KT 020V140 9999 FEW048 30/16 Q1017 NOSIG

VFR

29°C / 15°C

[Più]
Vento 70º variable 030º to 160º 8kt
Visibilità >10km
Tempo -
Nuvole Few Clouds 4500ft
Pressione 1017
Cambiamento No Significant change
Grezzo LERI 191300Z 07008KT 030V160 9999 FEW045 29/15 Q1017 NOSIG

VFR

29°C / 16°C

[Più]
Vento 80º variable 010º to 140º 6kt
Visibilità >10km
Tempo -
Nuvole Scattered Clouds 4500ft
Pressione 1018
Cambiamento No Significant change
Grezzo LERI 191230Z 08006KT 010V140 9999 SCT045 29/16 Q1018 NOSIG

VFR

29°C / 16°C

[Più]
Vento 70º variable 030º to 130º 7kt
Visibilità >10km
Tempo -
Nuvole Scattered Clouds 4300ft
Pressione 1018
Cambiamento No Significant change
Grezzo LERI 191200Z 07007KT 030V130 9999 SCT043 29/16 Q1018 NOSIG

VFR

28°C / 16°C

[Più]
Vento 70º variable 020º to 120º 8kt
Visibilità >10km
Tempo -
Nuvole Scattered Clouds 4000ft
Pressione 1018
Cambiamento No Significant change
Grezzo LERI 191130Z 07008KT 020V120 9999 SCT040 28/16 Q1018 NOSIG

VFR

28°C / 17°C

[Più]
Vento 70º variable 020º to 110º 8kt
Visibilità >10km
Tempo -
Nuvole Scattered Clouds 3900ft
Pressione 1018
Cambiamento No Significant change
Grezzo LERI 191100Z 07008KT 020V110 9999 SCT039 28/17 Q1018 NOSIG

VFR

28°C / 17°C

[Più]
Vento 60º variable 010º to 100º 8kt
Visibilità >10km
Tempo -
Nuvole Broken Clouds 3600ft
Pressione 1018
Cambiamento No Significant change
Grezzo LERI 191030Z 06008KT 010V100 9999 BKN036 28/17 Q1018 NOSIG

VFR

26°C / 17°C

[Più]
Vento variable 5kt
Visibilità >10km
Tempo -
Nuvole Scattered Clouds 3500ft
Pressione 1019
Cambiamento No Significant change
Grezzo LERI 191000Z VRB05KT 9999 SCT035 BKN042 26/17 Q1019 NOSIG

VFR

27°C / 17°C

[Più]
Vento 60º variable 020º to 120º 4kt
Visibilità >10km
Tempo -
Nuvole Scattered Clouds 3500ft
Pressione 1019
Cambiamento No Significant change
Grezzo LERI 190930Z 06004KT 020V120 9999 SCT035 27/17 Q1019 NOSIG

VFR

26°C / 17°C

[Più]
Vento 30º variable 330º to 100º 4kt
Visibilità >10km
Tempo -
Nuvole Few Clouds 3800ft
Pressione 1018
Cambiamento No Significant change
Grezzo LERI 190900Z 03004KT 330V100 9999 FEW038 26/17 Q1018 NOSIG

VFR

26°C / 14°C

[Più]
Vento 10º variable 330º to 060º 5kt
Visibilità >10km
Tempo -
Nuvole Scattered Clouds 3300ft
Pressione 1018
Cambiamento No Significant change
Grezzo LERI 190830Z 01005KT 330V060 9999 SCT033 26/14 Q1018 NOSIG

VFR

24°C / 11°C

[Più]
Vento 340º variable 290º to 020º 3kt
Visibilità >10km
Tempo -
Nuvole Scattered Clouds 2800ft
Pressione 1018
Cambiamento No Significant change
Grezzo LERI 190800Z 34003KT 290V020 9999 SCT028 24/11 Q1018 NOSIG

VFR

23°C / 12°C

[Più]
Vento variable 0kt
Visibilità >10km
Tempo -
Nuvole Few Clouds 2300ft
Pressione 1018
Cambiamento No Significant change
Grezzo LERI 190730Z 00000KT 9999 FEW023 SCT030 23/12 Q1018 NOSIG

VFR

21°C / 14°C

[Più]
Vento 220º 2kt
Visibilità >10km
Tempo -
Nuvole Few Clouds 2100ft
Pressione 1018
Cambiamento No Significant change
Grezzo LERI 190700Z 22002KT 9999 FEW021 SCT030 21/14 Q1018 NOSIG

MVFR

19°C / 13°C

[Più]
Vento 190º variable 170º to 240º 3kt
Visibilità >10km
Tempo -
Nuvole Few Clouds 1900ft
Pressione 1017
Cambiamento No Significant change
Grezzo LERI 190630Z 19003KT 170V240 9999 FEW019 BKN023 19/13 Q1017 NOSIG

TAF per Alcantarilla (LERI)

From till


Maximum Temperature 29ºC on . Minimum Temperature 19ºC on .
From till Wind 100º 10kt. Visibility 10km or more. Few Clouds 3500ft.
Becoming from till Wind variable 3kt. Visibility 10km or more. Few Clouds 3500ft.
With 40% probability, Temporarly from till Broken Clouds 1200ft.
Becoming from till Wind 90º 10kt. Visibility 10km or more. Few Clouds 3500ft.
With 40% probability, Temporarly from till Visibility 4000m. Thunderstorm Rain . Scattered Clouds 2500ft.

Grezzo: TAF LERI 191700Z 1918/2018 10010KT 9999 FEW035 TX29/2014Z TN19/2006Z BECMG 1919/1921 VRB03KT PROB40 TEMPO 1923/2008 BKN012 BECMG 2008/2010 09010KT PROB40 TEMPO 2012/2018 4000 TSRA SCT025CB

Tempo in atto per Alcantarilla: immagine satellitare e pioggia, Spagna

Il segnaposto è situato a Alcantarilla. [Più]

L'immagine satellitare in tempo reale combina la luce visibile durante il giorno con la radiazione infrarossa durante la notte. Di notte l'immagine non è scura poiché i raggi infrarossi possono rilevare differenze di temperatura. Purtroppo, le nuvole basse e la nebbia sono difficili da distinguere dalla temperatura del suolo e possono pertanto essere quasi invisibili durante la notte. Le immagini satellitari Meteosat per l'Europa vengono aggiornate in tempo reale ogni 5 minuti. Le immagini GOES-16 / GOES-17 (Nord e Sud America) e Himawari (Asia) vengono aggiornate ogni 10 minuti.

Le precipitazioni sono stimate da radar e satellite. Una precipitazione notturna stimata da satellite è meno accurata di una diurna. Le croci arancioni identificano i fulmini caduti (in Europa).

Copyright 2021 EUMETSAT / meteoblue. Fulminazioni fornite da nowcast.

Radar per Alcantarilla

Pioggerella
Lieve
Moderato
Forte
Molto forte
Grandine

Il segnaposto è situato a Alcantarilla. Questa animazione mostra le precipitazioni da radar per 1 l’ora precedente. Una pioggerella o una leggera caduta di neve potrebbero essere invisibili per il radar. L'intensità delle precipitazioni è codificata a colori, dal blu chiaro all'arancione.
Radar data source: AEMET.

Situazione meteo attuale e allerta

EUMETNET – MeteoAlarm

pictomap

Fonte: AEMET

Sono possibili ritardi tra questo sito e www.meteoalarm.eu: per avere informazioni sempre aggiornate sui livelli d'allerta come pubblicati dai Servizi Meteorologici Nazionali, visitate www.meteoalarm.eu.